sensor_id;sensor_type;location;lat;lon;timestamp;P1;durP1;ratioP1;P2;durP2;ratioP2
62401;SDS011;48440;51.224;22.506;2022-10-24T00:01:20;84.88;;;36.65;;
62401;SDS011;48440;51.224;22.506;2022-10-24T00:03:47;77.65;;;35.20;;
62401;SDS011;48440;51.224;22.506;2022-10-24T00:06:13;72.43;;;33.20;;
62401;SDS011;48440;51.224;22.506;2022-10-24T00:08:40;86.97;;;35.78;;
62401;SDS011;48440;51.224;22.506;2022-10-24T00:11:10;74.07;;;33.65;;
62401;SDS011;48440;51.224;22.506;2022-10-24T00:13:41;81.43;;;35.03;;
62401;SDS011;48440;51.224;22.506;2022-10-24T00:16:07;77.57;;;34.08;;
62401;SDS011;48440;51.224;22.506;2022-10-24T00:18:33;69.10;;;32.70;;
62401;SDS011;48440;51.224;22.506;2022-10-24T00:20:59;67.78;;;32.30;;
62401;SDS011;48440;51.224;22.506;2022-10-24T00:23:24;67.70;;;32.67;;
62401;SDS011;48440;51.224;22.506;2022-10-24T00:25:50;76.80;;;34.40;;
62401;SDS011;48440;51.224;22.506;2022-10-24T00:28:15;73.60;;;33.65;;
62401;SDS011;48440;51.224;22.506;2022-10-24T00:30:41;75.38;;;32.47;;
62401;SDS011;48440;51.224;22.506;2022-10-24T00:33:07;68.78;;;33.30;;
62401;SDS011;48440;51.224;22.506;2022-10-24T00:35:33;72.47;;;34.45;;
62401;SDS011;48440;51.224;22.506;2022-10-24T00:37:59;73.03;;;34.00;;
62401;SDS011;48440;51.224;22.506;2022-10-24T00:40:24;76.50;;;34.80;;
62401;SDS011;48440;51.224;22.506;2022-10-24T00:42:50;75.90;;;31.33;;
62401;SDS011;48440;51.224;22.506;2022-10-24T00:48:00;67.88;;;31.10;;
62401;SDS011;48440;51.224;22.506;2022-10-24T00:50:26;67.95;;;31.65;;
62401;SDS011;48440;51.224;22.506;2022-10-24T00:52:53;74.72;;;31.35;;
62401;SDS011;48440;51.224;22.506;2022-10-24T00:55:19;70.45;;;30.52;;
62401;SDS011;48440;51.224;22.506;2022-10-24T00:57:49;73.35;;;32.45;;
62401;SDS011;48440;51.224;22.506;2022-10-24T01:00:20;67.03;;;29.88;;
62401;SDS011;48440;51.224;22.506;2022-10-24T01:02:49;77.90;;;32.90;;
62401;SDS011;48440;51.224;22.506;2022-10-24T01:05:14;81.75;;;32.20;;
62401;SDS011;48440;51.224;22.506;2022-10-24T01:21:56;82.93;;;33.10;;
62401;SDS011;48440;51.224;22.506;2022-10-24T01:27:04;78.25;;;32.30;;
62401;SDS011;48440;51.224;22.506;2022-10-24T01:32:13;81.75;;;32.53;;
62401;SDS011;48440;51.224;22.506;2022-10-24T01:34:45;71.53;;;30.58;;
62401;SDS011;48440;51.224;22.506;2022-10-24T01:37:42;74.85;;;31.17;;
62401;SDS011;48440;51.224;22.506;2022-10-24T01:40:26;73.38;;;31.45;;
62401;SDS011;48440;51.224;22.506;2022-10-24T01:43:03;66.57;;;31.00;;
62401;SDS011;48440;51.224;22.506;2022-10-24T01:45:37;70.40;;;30.63;;
62401;SDS011;48440;51.224;22.506;2022-10-24T01:48:07;72.30;;;31.67;;
62401;SDS011;48440;51.224;22.506;2022-10-24T01:50:37;75.78;;;31.98;;
62401;SDS011;48440;51.224;22.506;2022-10-24T01:53:05;66.40;;;29.17;;
62401;SDS011;48440;51.224;22.506;2022-10-24T01:55:33;69.30;;;32.47;;
62401;SDS011;48440;51.224;22.506;2022-10-24T01:58:00;75.05;;;32.65;;
62401;SDS011;48440;51.224;22.506;2022-10-24T02:00:29;69.15;;;31.48;;
62401;SDS011;48440;51.224;22.506;2022-10-24T02:02:56;69.60;;;32.13;;
62401;SDS011;48440;51.224;22.506;2022-10-24T02:05:52;72.20;;;31.85;;
62401;SDS011;48440;51.224;22.506;2022-10-24T02:08:31;71.60;;;32.15;;
62401;SDS011;48440;51.224;22.506;2022-10-24T02:11:03;70.65;;;32.45;;
62401;SDS011;48440;51.224;22.506;2022-10-24T02:13:45;71.32;;;32.25;;
62401;SDS011;48440;51.224;22.506;2022-10-24T02:16:20;76.28;;;33.08;;
62401;SDS011;48440;51.224;22.506;2022-10-24T02:18:51;75.28;;;32.92;;
62401;SDS011;48440;51.224;22.506;2022-10-24T02:21:25;73.75;;;32.47;;
62401;SDS011;48440;51.224;22.506;2022-10-24T02:28:59;78.82;;;32.83;;
62401;SDS011;48440;51.224;22.506;2022-10-24T02:31:30;73.90;;;32.53;;
62401;SDS011;48440;51.224;22.506;2022-10-24T02:34:00;82.85;;;34.50;;
62401;SDS011;48440;51.224;22.506;2022-10-24T02:36:30;78.68;;;35.33;;
62401;SDS011;48440;51.224;22.506;2022-10-24T02:38:57;75.53;;;33.70;;
62401;SDS011;48440;51.224;22.506;2022-10-24T02:41:25;83.95;;;35.17;;
62401;SDS011;48440;51.224;22.506;2022-10-24T02:43:56;72.45;;;33.75;;
62401;SDS011;48440;51.224;22.506;2022-10-24T02:46:23;87.85;;;33.67;;
62401;SDS011;48440;51.224;22.506;2022-10-24T02:48:50;74.88;;;33.42;;
62401;SDS011;48440;51.224;22.506;2022-10-24T02:51:23;83.35;;;35.17;;
62401;SDS011;48440;51.224;22.506;2022-10-24T02:53:52;77.28;;;34.80;;
62401;SDS011;48440;51.224;22.506;2022-10-24T02:56:18;75.97;;;34.03;;
62401;SDS011;48440;51.224;22.506;2022-10-24T02:58:43;80.53;;;33.28;;
62401;SDS011;48440;51.224;22.506;2022-10-24T03:01:09;88.57;;;36.42;;
62401;SDS011;48440;51.224;22.506;2022-10-24T03:03:35;77.35;;;33.38;;
62401;SDS011;48440;51.224;22.506;2022-10-24T03:06:00;77.60;;;34.58;;
62401;SDS011;48440;51.224;22.506;2022-10-24T03:08:26;74.95;;;34.55;;
62401;SDS011;48440;51.224;22.506;2022-10-24T03:10:52;75.88;;;33.88;;
62401;SDS011;48440;51.224;22.506;2022-10-24T03:13:17;83.68;;;34.53;;
62401;SDS011;48440;51.224;22.506;2022-10-24T03:15:43;83.72;;;35.58;;
62401;SDS011;48440;51.224;22.506;2022-10-24T03:18:09;74.72;;;34.67;;
62401;SDS011;48440;51.224;22.506;2022-10-24T03:20:35;79.25;;;33.92;;
62401;SDS011;48440;51.224;22.506;2022-10-24T03:23:00;79.00;;;33.50;;
62401;SDS011;48440;51.224;22.506;2022-10-24T03:25:26;77.65;;;32.38;;
62401;SDS011;48440;51.224;22.506;2022-10-24T03:27:54;77.35;;;33.20;;
62401;SDS011;48440;51.224;22.506;2022-10-24T03:30:20;82.70;;;34.55;;
62401;SDS011;48440;51.224;22.506;2022-10-24T03:32:45;73.38;;;32.90;;
62401;SDS011;48440;51.224;22.506;2022-10-24T03:35:11;74.57;;;32.33;;
62401;SDS011;48440;51.224;22.506;2022-10-24T03:37:37;70.05;;;31.63;;
62401;SDS011;48440;51.224;22.506;2022-10-24T03:40:04;69.00;;;31.70;;
62401;SDS011;48440;51.224;22.506;2022-10-24T03:42:30;80.30;;;32.08;;
62401;SDS011;48440;51.224;22.506;2022-10-24T03:44:56;67.38;;;30.75;;
62401;SDS011;48440;51.224;22.506;2022-10-24T03:47:22;70.75;;;31.58;;
62401;SDS011;48440;51.224;22.506;2022-10-24T03:49:51;69.78;;;30.13;;
62401;SDS011;48440;51.224;22.506;2022-10-24T03:52:17;80.30;;;31.83;;
62401;SDS011;48440;51.224;22.506;2022-10-24T03:54:43;64.18;;;29.58;;
62401;SDS011;48440;51.224;22.506;2022-10-24T03:57:09;71.70;;;30.75;;
62401;SDS011;48440;51.224;22.506;2022-10-24T03:59:35;79.78;;;31.77;;
62401;SDS011;48440;51.224;22.506;2022-10-24T04:02:04;73.28;;;30.05;;
62401;SDS011;48440;51.224;22.506;2022-10-24T04:04:51;75.43;;;30.95;;
62401;SDS011;48440;51.224;22.506;2022-10-24T04:07:17;88.88;;;31.73;;
62401;SDS011;48440;51.224;22.506;2022-10-24T04:09:43;66.13;;;31.60;;
62401;SDS011;48440;51.224;22.506;2022-10-24T04:15:22;64.28;;;29.33;;
62401;SDS011;48440;51.224;22.506;2022-10-24T04:17:48;75.75;;;33.38;;
62401;SDS011;48440;51.224;22.506;2022-10-24T04:20:24;68.63;;;29.95;;
62401;SDS011;48440;51.224;22.506;2022-10-24T04:23:05;72.75;;;30.83;;
62401;SDS011;48440;51.224;22.506;2022-10-24T04:35:05;66.53;;;28.65;;
62401;SDS011;48440;51.224;22.506;2022-10-24T04:37:37;63.13;;;27.88;;
62401;SDS011;48440;51.224;22.506;2022-10-24T04:40:26;63.55;;;29.05;;
62401;SDS011;48440;51.224;22.506;2022-10-24T04:43:15;60.60;;;28.58;;
62401;SDS011;48440;51.224;22.506;2022-10-24T04:46:04;71.93;;;29.92;;
62401;SDS011;48440;51.224;22.506;2022-10-24T04:48:41;69.03;;;30.55;;
62401;SDS011;48440;51.224;22.506;2022-10-24T04:51:07;63.72;;;29.10;;
62401;SDS011;48440;51.224;22.506;2022-10-24T04:53:34;70.88;;;30.35;;
62401;SDS011;48440;51.224;22.506;2022-10-24T04:56:00;66.35;;;29.63;;
62401;SDS011;48440;51.224;22.506;2022-10-24T04:58:26;63.13;;;28.52;;
62401;SDS011;48440;51.224;22.506;2022-10-24T05:00:53;66.20;;;28.88;;
62401;SDS011;48440;51.224;22.506;2022-10-24T05:03:18;66.82;;;30.58;;
62401;SDS011;48440;51.224;22.506;2022-10-24T05:05:45;63.20;;;28.77;;
62401;SDS011;48440;51.224;22.506;2022-10-24T05:08:12;65.32;;;28.77;;
62401;SDS011;48440;51.224;22.506;2022-10-24T05:10:41;68.68;;;28.13;;
62401;SDS011;48440;51.224;22.506;2022-10-24T05:13:19;66.38;;;28.67;;
62401;SDS011;48440;51.224;22.506;2022-10-24T05:16:05;59.47;;;27.80;;
62401;SDS011;48440;51.224;22.506;2022-10-24T05:18:35;66.13;;;27.77;;
62401;SDS011;48440;51.224;22.506;2022-10-24T05:21:01;69.30;;;28.65;;
62401;SDS011;48440;51.224;22.506;2022-10-24T05:23:27;60.80;;;27.90;;
62401;SDS011;48440;51.224;22.506;2022-10-24T05:25:53;64.68;;;28.08;;
62401;SDS011;48440;51.224;22.506;2022-10-24T05:28:24;61.22;;;27.88;;
62401;SDS011;48440;51.224;22.506;2022-10-24T05:30:52;70.75;;;29.65;;
62401;SDS011;48440;51.224;22.506;2022-10-24T05:33:22;58.28;;;28.13;;
62401;SDS011;48440;51.224;22.506;2022-10-24T05:35:49;67.70;;;29.75;;
62401;SDS011;48440;51.224;22.506;2022-10-24T05:38:15;64.00;;;29.67;;
62401;SDS011;48440;51.224;22.506;2022-10-24T05:40:46;58.95;;;27.05;;
62401;SDS011;48440;51.224;22.506;2022-10-24T05:43:21;60.90;;;28.40;;
62401;SDS011;48440;51.224;22.506;2022-10-24T05:45:47;65.18;;;29.08;;
62401;SDS011;48440;51.224;22.506;2022-10-24T05:48:13;66.20;;;28.60;;
62401;SDS011;48440;51.224;22.506;2022-10-24T05:50:39;66.57;;;29.08;;
62401;SDS011;48440;51.224;22.506;2022-10-24T05:53:07;57.63;;;27.30;;
62401;SDS011;48440;51.224;22.506;2022-10-24T05:55:33;62.17;;;26.88;;
62401;SDS011;48440;51.224;22.506;2022-10-24T05:57:59;61.72;;;26.15;;
62401;SDS011;48440;51.224;22.506;2022-10-24T06:00:25;60.03;;;26.75;;
62401;SDS011;48440;51.224;22.506;2022-10-24T06:02:53;60.53;;;26.95;;
62401;SDS011;48440;51.224;22.506;2022-10-24T06:05:21;61.45;;;26.98;;
62401;SDS011;48440;51.224;22.506;2022-10-24T06:07:46;62.30;;;26.02;;
62401;SDS011;48440;51.224;22.506;2022-10-24T06:10:12;57.78;;;26.20;;
62401;SDS011;48440;51.224;22.506;2022-10-24T06:12:38;58.85;;;26.70;;
62401;SDS011;48440;51.224;22.506;2022-10-24T06:15:05;71.75;;;27.27;;
62401;SDS011;48440;51.224;22.506;2022-10-24T06:17:33;57.25;;;25.73;;
62401;SDS011;48440;51.224;22.506;2022-10-24T06:19:59;60.15;;;26.85;;
62401;SDS011;48440;51.224;22.506;2022-10-24T06:22:31;57.13;;;26.15;;
62401;SDS011;48440;51.224;22.506;2022-10-24T06:24:56;60.55;;;26.42;;
62401;SDS011;48440;51.224;22.506;2022-10-24T06:27:22;54.20;;;26.20;;
62401;SDS011;48440;51.224;22.506;2022-10-24T06:29:48;63.35;;;27.92;;
62401;SDS011;48440;51.224;22.506;2022-10-24T06:32:13;55.97;;;26.17;;
62401;SDS011;48440;51.224;22.506;2022-10-24T06:34:50;55.22;;;26.02;;
62401;SDS011;48440;51.224;22.506;2022-10-24T06:37:16;61.03;;;27.00;;
62401;SDS011;48440;51.224;22.506;2022-10-24T06:39:42;55.78;;;26.00;;
62401;SDS011;48440;51.224;22.506;2022-10-24T06:42:08;58.50;;;27.45;;
62401;SDS011;48440;51.224;22.506;2022-10-24T06:44:34;62.13;;;27.77;;
62401;SDS011;48440;51.224;22.506;2022-10-24T06:46:59;62.25;;;27.45;;
62401;SDS011;48440;51.224;22.506;2022-10-24T06:49:28;55.72;;;26.35;;
62401;SDS011;48440;51.224;22.506;2022-10-24T06:51:54;59.15;;;24.75;;
62401;SDS011;48440;51.224;22.506;2022-10-24T06:54:20;56.55;;;25.92;;
62401;SDS011;48440;51.224;22.506;2022-10-24T06:56:45;53.17;;;25.15;;
62401;SDS011;48440;51.224;22.506;2022-10-24T06:59:13;58.60;;;24.92;;
62401;SDS011;48440;51.224;22.506;2022-10-24T07:01:42;56.25;;;25.88;;
62401;SDS011;48440;51.224;22.506;2022-10-24T07:04:11;58.25;;;26.58;;
62401;SDS011;48440;51.224;22.506;2022-10-24T07:06:37;55.10;;;25.98;;
62401;SDS011;48440;51.224;22.506;2022-10-24T07:09:03;58.55;;;26.35;;
62401;SDS011;48440;51.224;22.506;2022-10-24T07:11:29;53.80;;;24.60;;
62401;SDS011;48440;51.224;22.506;2022-10-24T07:13:55;59.70;;;26.73;;
62401;SDS011;48440;51.224;22.506;2022-10-24T07:16:21;55.45;;;26.85;;
62401;SDS011;48440;51.224;22.506;2022-10-24T07:18:53;53.92;;;26.15;;
62401;SDS011;48440;51.224;22.506;2022-10-24T07:21:20;54.92;;;26.02;;
62401;SDS011;48440;51.224;22.506;2022-10-24T07:23:53;51.92;;;25.45;;
62401;SDS011;48440;51.224;22.506;2022-10-24T07:26:20;56.50;;;25.60;;
62401;SDS011;48440;51.224;22.506;2022-10-24T07:28:47;57.55;;;27.38;;
62401;SDS011;48440;51.224;22.506;2022-10-24T07:31:22;55.10;;;26.77;;
62401;SDS011;48440;51.224;22.506;2022-10-24T07:33:49;53.30;;;25.15;;
62401;SDS011;48440;51.224;22.506;2022-10-24T07:36:19;54.00;;;26.45;;
62401;SDS011;48440;51.224;22.506;2022-10-24T07:38:50;58.50;;;27.67;;
62401;SDS011;48440;51.224;22.506;2022-10-24T07:41:20;57.08;;;26.50;;
62401;SDS011;48440;51.224;22.506;2022-10-24T07:44:01;53.75;;;27.30;;
62401;SDS011;48440;51.224;22.506;2022-10-24T07:46:32;60.70;;;28.52;;
62401;SDS011;48440;51.224;22.506;2022-10-24T07:48:58;55.20;;;25.75;;
62401;SDS011;48440;51.224;22.506;2022-10-24T07:51:24;54.13;;;26.98;;
62401;SDS011;48440;51.224;22.506;2022-10-24T07:53:52;53.28;;;26.27;;
62401;SDS011;48440;51.224;22.506;2022-10-24T07:56:18;50.92;;;25.40;;
62401;SDS011;48440;51.224;22.506;2022-10-24T07:58:44;52.80;;;25.48;;
62401;SDS011;48440;51.224;22.506;2022-10-24T08:01:18;50.55;;;24.33;;
62401;SDS011;48440;51.224;22.506;2022-10-24T08:03:49;52.63;;;24.88;;
62401;SDS011;48440;51.224;22.506;2022-10-24T08:06:16;56.38;;;25.42;;
62401;SDS011;48440;51.224;22.506;2022-10-24T08:08:46;52.47;;;24.55;;
62401;SDS011;48440;51.224;22.506;2022-10-24T08:11:13;50.65;;;25.85;;
62401;SDS011;48440;51.224;22.506;2022-10-24T08:13:42;48.88;;;24.73;;
62401;SDS011;48440;51.224;22.506;2022-10-24T08:16:11;53.03;;;25.45;;
62401;SDS011;48440;51.224;22.506;2022-10-24T08:18:37;46.22;;;23.00;;
62401;SDS011;48440;51.224;22.506;2022-10-24T08:21:04;50.65;;;25.17;;
62401;SDS011;48440;51.224;22.506;2022-10-24T08:23:35;55.80;;;26.02;;
62401;SDS011;48440;51.224;22.506;2022-10-24T08:26:06;52.13;;;23.63;;
62401;SDS011;48440;51.224;22.506;2022-10-24T08:28:36;48.42;;;22.75;;
62401;SDS011;48440;51.224;22.506;2022-10-24T08:34:18;46.78;;;23.17;;
62401;SDS011;48440;51.224;22.506;2022-10-24T08:36:38;47.50;;;22.98;;
62401;SDS011;48440;51.224;22.506;2022-10-24T08:39:04;47.80;;;23.13;;
62401;SDS011;48440;51.224;22.506;2022-10-24T08:44:27;44.38;;;22.88;;
62401;SDS011;48440;51.224;22.506;2022-10-24T08:47:12;45.92;;;22.55;;
62401;SDS011;48440;51.224;22.506;2022-10-24T08:52:45;45.00;;;22.27;;
62401;SDS011;48440;51.224;22.506;2022-10-24T08:55:17;42.95;;;22.25;;
62401;SDS011;48440;51.224;22.506;2022-10-24T08:57:46;44.33;;;21.20;;
62401;SDS011;48440;51.224;22.506;2022-10-24T09:00:20;43.60;;;21.40;;
62401;SDS011;48440;51.224;22.506;2022-10-24T09:02:50;36.00;;;19.55;;
62401;SDS011;48440;51.224;22.506;2022-10-24T09:05:33;33.78;;;18.05;;
62401;SDS011;48440;51.224;22.506;2022-10-24T09:08:06;33.53;;;17.95;;
62401;SDS011;48440;51.224;22.506;2022-10-24T09:11:02;37.20;;;17.85;;
62401;SDS011;48440;51.224;22.506;2022-10-24T09:13:31;37.22;;;18.08;;
62401;SDS011;48440;51.224;22.506;2022-10-24T09:15:59;31.60;;;16.85;;
62401;SDS011;48440;51.224;22.506;2022-10-24T09:18:26;35.35;;;16.40;;
62401;SDS011;48440;51.224;22.506;2022-10-24T09:20:56;30.60;;;17.17;;
62401;SDS011;48440;51.224;22.506;2022-10-24T09:23:23;32.95;;;17.65;;
62401;SDS011;48440;51.224;22.506;2022-10-24T09:25:50;36.50;;;17.45;;
62401;SDS011;48440;51.224;22.506;2022-10-24T09:28:18;31.77;;;17.00;;
62401;SDS011;48440;51.224;22.506;2022-10-24T09:30:45;36.20;;;17.65;;
62401;SDS011;48440;51.224;22.506;2022-10-24T09:35:49;33.95;;;18.02;;
62401;SDS011;48440;51.224;22.506;2022-10-24T09:40:54;35.58;;;17.08;;
62401;SDS011;48440;51.224;22.506;2022-10-24T09:46:11;35.33;;;17.67;;
62401;SDS011;48440;51.224;22.506;2022-10-24T09:51:06;31.25;;;15.75;;
62401;SDS011;48440;51.224;22.506;2022-10-24T09:53:34;31.40;;;17.08;;
62401;SDS011;48440;51.224;22.506;2022-10-24T09:56:11;31.42;;;15.93;;
62401;SDS011;48440;51.224;22.506;2022-10-24T09:58:38;36.70;;;17.02;;
62401;SDS011;48440;51.224;22.506;2022-10-24T10:01:25;33.78;;;17.70;;
62401;SDS011;48440;51.224;22.506;2022-10-24T10:04:00;31.33;;;16.45;;
62401;SDS011;48440;51.224;22.506;2022-10-24T10:06:27;31.60;;;15.90;;
62401;SDS011;48440;51.224;22.506;2022-10-24T10:08:56;37.75;;;17.20;;
62401;SDS011;48440;51.224;22.506;2022-10-24T10:11:29;33.13;;;16.45;;
62401;SDS011;48440;51.224;22.506;2022-10-24T10:13:58;33.38;;;15.95;;
62401;SDS011;48440;51.224;22.506;2022-10-24T10:16:29;28.65;;;15.90;;
62401;SDS011;48440;51.224;22.506;2022-10-24T10:19:01;33.00;;;16.88;;
62401;SDS011;48440;51.224;22.506;2022-10-24T10:21:59;29.80;;;15.63;;
62401;SDS011;48440;51.224;22.506;2022-10-24T10:30:08;31.27;;;16.70;;
62401;SDS011;48440;51.224;22.506;2022-10-24T10:35:38;31.92;;;15.52;;
62401;SDS011;48440;51.224;22.506;2022-10-24T10:41:05;31.27;;;16.00;;
62401;SDS011;48440;51.224;22.506;2022-10-24T10:49:23;29.63;;;15.95;;
62401;SDS011;48440;51.224;22.506;2022-10-24T11:11:23;36.10;;;16.08;;
62401;SDS011;48440;51.224;22.506;2022-10-24T11:16:55;34.40;;;17.40;;
62401;SDS011;48440;51.224;22.506;2022-10-24T11:19:27;33.33;;;17.40;;
62401;SDS011;48440;51.224;22.506;2022-10-24T11:21:58;41.35;;;18.25;;
62401;SDS011;48440;51.224;22.506;2022-10-24T11:24:29;39.58;;;18.90;;
62401;SDS011;48440;51.224;22.506;2022-10-24T11:27:01;38.25;;;17.23;;
62401;SDS011;48440;51.224;22.506;2022-10-24T11:29:42;43.92;;;16.63;;
62401;SDS011;48440;51.224;22.506;2022-10-24T11:32:20;35.65;;;17.77;;
62401;SDS011;48440;51.224;22.506;2022-10-24T11:34:56;39.30;;;18.17;;
62401;SDS011;48440;51.224;22.506;2022-10-24T11:37:33;36.78;;;17.75;;
62401;SDS011;48440;51.224;22.506;2022-10-24T11:40:11;33.88;;;17.33;;
62401;SDS011;48440;51.224;22.506;2022-10-24T11:45:17;37.28;;;16.90;;
62401;SDS011;48440;51.224;22.506;2022-10-24T11:58:51;32.60;;;16.23;;
62401;SDS011;48440;51.224;22.506;2022-10-24T12:01:38;30.58;;;15.25;;
62401;SDS011;48440;51.224;22.506;2022-10-24T12:19:01;30.35;;;16.80;;
62401;SDS011;48440;51.224;22.506;2022-10-24T12:21:37;34.47;;;15.50;;
62401;SDS011;48440;51.224;22.506;2022-10-24T12:24:16;35.03;;;17.50;;
62401;SDS011;48440;51.224;22.506;2022-10-24T12:26:59;38.85;;;17.30;;
62401;SDS011;48440;51.224;22.506;2022-10-24T12:30:13;37.38;;;15.80;;
62401;SDS011;48440;51.224;22.506;2022-10-24T12:33:26;35.22;;;17.85;;
62401;SDS011;48440;51.224;22.506;2022-10-24T12:35:44;36.70;;;17.33;;
62401;SDS011;48440;51.224;22.506;2022-10-24T12:41:04;33.60;;;18.27;;
62401;SDS011;48440;51.224;22.506;2022-10-24T12:43:50;41.45;;;17.67;;
62401;SDS011;48440;51.224;22.506;2022-10-24T12:56:26;38.25;;;17.65;;
62401;SDS011;48440;51.224;22.506;2022-10-24T12:58:57;40.72;;;18.70;;
62401;SDS011;48440;51.224;22.506;2022-10-24T13:01:33;41.33;;;18.58;;
62401;SDS011;48440;51.224;22.506;2022-10-24T13:04:20;42.00;;;19.30;;
62401;SDS011;48440;51.224;22.506;2022-10-24T13:10:17;37.85;;;18.77;;
62401;SDS011;48440;51.224;22.506;2022-10-24T13:18:13;41.85;;;18.88;;
62401;SDS011;48440;51.224;22.506;2022-10-24T13:20:44;42.50;;;18.58;;
62401;SDS011;48440;51.224;22.506;2022-10-24T13:25:50;37.53;;;17.52;;
62401;SDS011;48440;51.224;22.506;2022-10-24T13:31:37;45.75;;;19.92;;
62401;SDS011;48440;51.224;22.506;2022-10-24T13:38:56;38.28;;;18.52;;
62401;SDS011;48440;51.224;22.506;2022-10-24T13:41:43;37.80;;;18.25;;
62401;SDS011;48440;51.224;22.506;2022-10-24T13:44:33;34.25;;;19.33;;
62401;SDS011;48440;51.224;22.506;2022-10-24T13:49:41;37.17;;;19.30;;
62401;SDS011;48440;51.224;22.506;2022-10-24T13:57:54;42.63;;;18.85;;
62401;SDS011;48440;51.224;22.506;2022-10-24T14:00:25;42.75;;;19.35;;
62401;SDS011;48440;51.224;22.506;2022-10-24T14:02:53;39.25;;;20.05;;
62401;SDS011;48440;51.224;22.506;2022-10-24T14:08:04;41.90;;;18.52;;
62401;SDS011;48440;51.224;22.506;2022-10-24T14:10:33;35.83;;;18.75;;
62401;SDS011;48440;51.224;22.506;2022-10-24T14:12:59;41.05;;;20.17;;
62401;SDS011;48440;51.224;22.506;2022-10-24T14:15:26;35.83;;;18.75;;
62401;SDS011;48440;51.224;22.506;2022-10-24T14:18:02;36.42;;;19.02;;
62401;SDS011;48440;51.224;22.506;2022-10-24T14:20:38;39.35;;;19.30;;
62401;SDS011;48440;51.224;22.506;2022-10-24T14:25:57;40.05;;;19.67;;
62401;SDS011;48440;51.224;22.506;2022-10-24T14:28:29;42.17;;;18.92;;
62401;SDS011;48440;51.224;22.506;2022-10-24T14:31:01;39.55;;;18.73;;
62401;SDS011;48440;51.224;22.506;2022-10-24T14:33:40;40.45;;;20.02;;
62401;SDS011;48440;51.224;22.506;2022-10-24T14:36:08;37.75;;;19.20;;
62401;SDS011;48440;51.224;22.506;2022-10-24T14:38:34;39.65;;;19.48;;
62401;SDS011;48440;51.224;22.506;2022-10-24T14:41:01;45.53;;;19.70;;
62401;SDS011;48440;51.224;22.506;2022-10-24T14:43:27;41.58;;;19.50;;
62401;SDS011;48440;51.224;22.506;2022-10-24T14:46:08;44.00;;;18.30;;
62401;SDS011;48440;51.224;22.506;2022-10-24T14:48:49;44.20;;;20.45;;
62401;SDS011;48440;51.224;22.506;2022-10-24T14:53:44;53.75;;;21.27;;
62401;SDS011;48440;51.224;22.506;2022-10-24T14:59:02;49.55;;;22.23;;
62401;SDS011;48440;51.224;22.506;2022-10-24T15:01:30;54.80;;;23.27;;
62401;SDS011;48440;51.224;22.506;2022-10-24T15:04:00;58.83;;;24.83;;
62401;SDS011;48440;51.224;22.506;2022-10-24T15:06:39;63.13;;;24.98;;
62401;SDS011;48440;51.224;22.506;2022-10-24T15:11:39;60.83;;;24.50;;
62401;SDS011;48440;51.224;22.506;2022-10-24T15:17:42;57.67;;;23.02;;
62401;SDS011;48440;51.224;22.506;2022-10-24T15:19:55;45.90;;;23.10;;
62401;SDS011;48440;51.224;22.506;2022-10-24T15:22:27;53.42;;;22.80;;
62401;SDS011;48440;51.224;22.506;2022-10-24T15:24:54;39.50;;;20.95;;
62401;SDS011;48440;51.224;22.506;2022-10-24T15:30:39;47.08;;;23.58;;
62401;SDS011;48440;51.224;22.506;2022-10-24T15:35:34;55.10;;;24.15;;
62401;SDS011;48440;51.224;22.506;2022-10-24T15:38:14;51.55;;;23.98;;
62401;SDS011;48440;51.224;22.506;2022-10-24T15:40:44;58.08;;;24.23;;
62401;SDS011;48440;51.224;22.506;2022-10-24T15:43:13;55.97;;;24.05;;
62401;SDS011;48440;51.224;22.506;2022-10-24T15:45:41;53.15;;;24.08;;
62401;SDS011;48440;51.224;22.506;2022-10-24T15:48:27;52.45;;;23.90;;
62401;SDS011;48440;51.224;22.506;2022-10-24T15:50:53;54.83;;;25.70;;
62401;SDS011;48440;51.224;22.506;2022-10-24T15:53:19;62.30;;;26.30;;
62401;SDS011;48440;51.224;22.506;2022-10-24T15:55:47;53.72;;;24.17;;
62401;SDS011;48440;51.224;22.506;2022-10-24T15:58:19;50.38;;;24.00;;
62401;SDS011;48440;51.224;22.506;2022-10-24T16:00:45;47.58;;;23.27;;
62401;SDS011;48440;51.224;22.506;2022-10-24T16:03:21;54.03;;;22.75;;
62401;SDS011;48440;51.224;22.506;2022-10-24T16:05:51;46.20;;;22.75;;
62401;SDS011;48440;51.224;22.506;2022-10-24T16:08:21;52.63;;;23.75;;
62401;SDS011;48440;51.224;22.506;2022-10-24T16:10:48;51.47;;;23.77;;
62401;SDS011;48440;51.224;22.506;2022-10-24T16:13:16;56.55;;;25.02;;
62401;SDS011;48440;51.224;22.506;2022-10-24T16:15:43;56.42;;;25.63;;
62401;SDS011;48440;51.224;22.506;2022-10-24T16:18:09;63.90;;;27.83;;
62401;SDS011;48440;51.224;22.506;2022-10-24T16:20:36;71.93;;;29.48;;
62401;SDS011;48440;51.224;22.506;2022-10-24T16:23:02;80.88;;;31.20;;
62401;SDS011;48440;51.224;22.506;2022-10-24T16:25:30;76.70;;;31.48;;
62401;SDS011;48440;51.224;22.506;2022-10-24T16:27:58;85.93;;;31.13;;
62401;SDS011;48440;51.224;22.506;2022-10-24T16:30:26;76.88;;;31.75;;
62401;SDS011;48440;51.224;22.506;2022-10-24T16:32:54;88.25;;;36.95;;
62401;SDS011;48440;51.224;22.506;2022-10-24T16:35:21;98.72;;;39.63;;
62401;SDS011;48440;51.224;22.506;2022-10-24T16:37:49;105.53;;;40.30;;
62401;SDS011;48440;51.224;22.506;2022-10-24T16:40:15;97.75;;;42.00;;
62401;SDS011;48440;51.224;22.506;2022-10-24T16:42:42;102.45;;;43.00;;
62401;SDS011;48440;51.224;22.506;2022-10-24T16:45:08;95.63;;;41.30;;
62401;SDS011;48440;51.224;22.506;2022-10-24T16:47:34;100.40;;;41.78;;
62401;SDS011;48440;51.224;22.506;2022-10-24T16:50:00;101.80;;;40.28;;
62401;SDS011;48440;51.224;22.506;2022-10-24T16:52:26;107.35;;;42.05;;
62401;SDS011;48440;51.224;22.506;2022-10-24T16:54:52;97.60;;;41.05;;
62401;SDS011;48440;51.224;22.506;2022-10-24T16:57:19;100.88;;;38.45;;
62401;SDS011;48440;51.224;22.506;2022-10-24T16:59:46;97.28;;;39.03;;
62401;SDS011;48440;51.224;22.506;2022-10-24T17:02:15;114.35;;;41.17;;
62401;SDS011;48440;51.224;22.506;2022-10-24T17:04:42;101.05;;;39.13;;
62401;SDS011;48440;51.224;22.506;2022-10-24T17:07:09;102.05;;;38.45;;
62401;SDS011;48440;51.224;22.506;2022-10-24T17:09:36;86.32;;;36.17;;
62401;SDS011;48440;51.224;22.506;2022-10-24T17:12:02;84.55;;;32.95;;
62401;SDS011;48440;51.224;22.506;2022-10-24T17:14:28;84.88;;;33.63;;
62401;SDS011;48440;51.224;22.506;2022-10-24T17:16:55;88.80;;;34.17;;
62401;SDS011;48440;51.224;22.506;2022-10-24T17:19:21;92.00;;;35.05;;
62401;SDS011;48440;51.224;22.506;2022-10-24T17:21:48;89.30;;;34.67;;
62401;SDS011;48440;51.224;22.506;2022-10-24T17:24:18;89.03;;;33.58;;
62401;SDS011;48440;51.224;22.506;2022-10-24T17:26:46;81.85;;;33.55;;
62401;SDS011;48440;51.224;22.506;2022-10-24T17:29:23;90.00;;;33.40;;
62401;SDS011;48440;51.224;22.506;2022-10-24T17:31:56;89.32;;;33.60;;
62401;SDS011;48440;51.224;22.506;2022-10-24T17:34:22;86.90;;;34.22;;
62401;SDS011;48440;51.224;22.506;2022-10-24T17:40:17;81.00;;;33.72;;